sensor_id;sensor_type;location;lat;lon;timestamp;pressure;altitude;pressure_sealevel;temperature
45393;BMP280;31129;44.810;10.334;2023-07-29T00:01:41;100508.66;;;25.83
45393;BMP280;31129;44.810;10.334;2023-07-29T00:04:08;100507.16;;;25.91
45393;BMP280;31129;44.810;10.334;2023-07-29T00:06:35;100503.50;;;25.89
45393;BMP280;31129;44.810;10.334;2023-07-29T00:09:01;100505.25;;;25.84
45393;BMP280;31129;44.810;10.334;2023-07-29T00:11:26;100505.53;;;25.78
45393;BMP280;31129;44.810;10.334;2023-07-29T00:13:52;100499.34;;;25.80
45393;BMP280;31129;44.810;10.334;2023-07-29T00:16:18;100496.84;;;25.84
45393;BMP280;31129;44.810;10.334;2023-07-29T00:18:47;100502.31;;;25.82
45393;BMP280;31129;44.810;10.334;2023-07-29T00:21:13;100499.78;;;25.76
45393;BMP280;31129;44.810;10.334;2023-07-29T00:23:39;100494.50;;;25.81
45393;BMP280;31129;44.810;10.334;2023-07-29T00:26:05;100496.72;;;25.82
45393;BMP280;31129;44.810;10.334;2023-07-29T00:28:30;100496.84;;;25.84
45393;BMP280;31129;44.810;10.334;2023-07-29T00:30:56;100488.31;;;25.82
45393;BMP280;31129;44.810;10.334;2023-07-29T00:33:21;100493.03;;;25.79
45393;BMP280;31129;44.810;10.334;2023-07-29T00:35:47;100494.94;;;25.77
45393;BMP280;31129;44.810;10.334;2023-07-29T00:38:13;100504.03;;;25.77
45393;BMP280;31129;44.810;10.334;2023-07-29T00:40:38;100496.25;;;25.76
45393;BMP280;31129;44.810;10.334;2023-07-29T00:43:04;100498.88;;;25.74
45393;BMP280;31129;44.810;10.334;2023-07-29T00:45:30;100503.75;;;25.73
45393;BMP280;31129;44.810;10.334;2023-07-29T00:47:57;100500.78;;;25.71
45393;BMP280;31129;44.810;10.334;2023-07-29T00:50:22;100501.53;;;25.72
45393;BMP280;31129;44.810;10.334;2023-07-29T00:52:49;100490.50;;;25.74
45393;BMP280;31129;44.810;10.334;2023-07-29T00:55:15;100499.59;;;25.65
45393;BMP280;31129;44.810;10.334;2023-07-29T00:57:41;100499.03;;;25.66
45393;BMP280;31129;44.810;10.334;2023-07-29T01:00:08;100504.94;;;25.70
45393;BMP280;31129;44.810;10.334;2023-07-29T01:02:35;100505.59;;;25.61
45393;BMP280;31129;44.810;10.334;2023-07-29T01:05:01;100504.28;;;25.62
45393;BMP280;31129;44.810;10.334;2023-07-29T01:07:39;100503.88;;;25.66
45393;BMP280;31129;44.810;10.334;2023-07-29T01:10:12;100508.09;;;25.57
45393;BMP280;31129;44.810;10.334;2023-07-29T01:12:53;100521.94;;;25.65
45393;BMP280;31129;44.810;10.334;2023-07-29T01:17:56;100511.00;;;25.50
45393;BMP280;31129;44.810;10.334;2023-07-29T01:20:25;100515.16;;;25.58
45393;BMP280;31129;44.810;10.334;2023-07-29T01:22:50;100518.25;;;25.53
45393;BMP280;31129;44.810;10.334;2023-07-29T01:25:16;100515.84;;;25.49
45393;BMP280;31129;44.810;10.334;2023-07-29T01:27:44;100511.91;;;25.52
45393;BMP280;31129;44.810;10.334;2023-07-29T01:30:10;100509.44;;;25.56
45393;BMP280;31129;44.810;10.334;2023-07-29T01:35:23;100514.47;;;25.67
45393;BMP280;31129;44.810;10.334;2023-07-29T01:37:56;100515.59;;;25.55
45393;BMP280;31129;44.810;10.334;2023-07-29T01:40:27;100522.38;;;25.61
45393;BMP280;31129;44.810;10.334;2023-07-29T01:42:53;100511.91;;;25.52
45393;BMP280;31129;44.810;10.334;2023-07-29T01:45:23;100512.13;;;25.37
45393;BMP280;31129;44.810;10.334;2023-07-29T01:47:49;100510.91;;;25.30
45393;BMP280;31129;44.810;10.334;2023-07-29T01:50:15;100503.69;;;25.27
45393;BMP280;31129;44.810;10.334;2023-07-29T01:52:40;100505.69;;;25.17
45393;BMP280;31129;44.810;10.334;2023-07-29T01:55:06;100508.38;;;24.98
45393;BMP280;31129;44.810;10.334;2023-07-29T01:57:32;100500.34;;;24.85
45393;BMP280;31129;44.810;10.334;2023-07-29T01:59:57;100499.72;;;24.77
45393;BMP280;31129;44.810;10.334;2023-07-29T02:02:23;100508.88;;;24.87
45393;BMP280;31129;44.810;10.334;2023-07-29T02:04:50;100517.19;;;24.95
45393;BMP280;31129;44.810;10.334;2023-07-29T02:07:20;100503.03;;;24.93
45393;BMP280;31129;44.810;10.334;2023-07-29T02:09:46;100519.78;;;24.93
45393;BMP280;31129;44.810;10.334;2023-07-29T02:12:11;100513.66;;;24.77
45393;BMP280;31129;44.810;10.334;2023-07-29T02:14:37;100520.47;;;24.66
45393;BMP280;31129;44.810;10.334;2023-07-29T02:17:03;100519.31;;;24.69
45393;BMP280;31129;44.810;10.334;2023-07-29T02:19:28;100512.44;;;24.70
45393;BMP280;31129;44.810;10.334;2023-07-29T02:21:54;100515.97;;;24.54
45393;BMP280;31129;44.810;10.334;2023-07-29T02:24:19;100515.78;;;24.52
45393;BMP280;31129;44.810;10.334;2023-07-29T02:26:45;100521.03;;;24.65
45393;BMP280;31129;44.810;10.334;2023-07-29T02:29:10;100526.94;;;24.69
45393;BMP280;31129;44.810;10.334;2023-07-29T02:31:36;100525.47;;;24.51
45393;BMP280;31129;44.810;10.334;2023-07-29T02:34:03;100530.22;;;24.40
45393;BMP280;31129;44.810;10.334;2023-07-29T02:36:28;100528.25;;;24.51
45393;BMP280;31129;44.810;10.334;2023-07-29T02:38:54;100526.94;;;24.52
45393;BMP280;31129;44.810;10.334;2023-07-29T02:41:20;100519.25;;;24.60
45393;BMP280;31129;44.810;10.334;2023-07-29T02:43:50;100511.44;;;24.58
45393;BMP280;31129;44.810;10.334;2023-07-29T02:46:16;100512.94;;;24.59
45393;BMP280;31129;44.810;10.334;2023-07-29T02:48:42;100513.41;;;24.65
45393;BMP280;31129;44.810;10.334;2023-07-29T02:51:08;100518.25;;;24.65
45393;BMP280;31129;44.810;10.334;2023-07-29T02:53:33;100517.78;;;24.59
45393;BMP280;31129;44.810;10.334;2023-07-29T02:56:02;100514.16;;;24.66
45393;BMP280;31129;44.810;10.334;2023-07-29T02:58:28;100510.94;;;24.69
45393;BMP280;31129;44.810;10.334;2023-07-29T03:01:06;100516.38;;;24.67
45393;BMP280;31129;44.810;10.334;2023-07-29T03:03:32;100515.63;;;24.67
45393;BMP280;31129;44.810;10.334;2023-07-29T03:06:06;100515.38;;;24.55
45393;BMP280;31129;44.810;10.334;2023-07-29T03:08:33;100515.00;;;24.59
45393;BMP280;31129;44.810;10.334;2023-07-29T03:10:59;100526.38;;;24.70
45393;BMP280;31129;44.810;10.334;2023-07-29T03:13:30;100520.00;;;24.60
45393;BMP280;31129;44.810;10.334;2023-07-29T03:16:05;100514.16;;;24.66
45393;BMP280;31129;44.810;10.334;2023-07-29T03:18:30;100519.00;;;24.48
45393;BMP280;31129;44.810;10.334;2023-07-29T03:20:56;100523.28;;;24.49
45393;BMP280;31129;44.810;10.334;2023-07-29T03:23:21;100523.31;;;24.41
45393;BMP280;31129;44.810;10.334;2023-07-29T03:25:50;100533.75;;;24.41
45393;BMP280;31129;44.810;10.334;2023-07-29T03:28:32;100543.22;;;24.46
45393;BMP280;31129;44.810;10.334;2023-07-29T03:30:58;100542.38;;;24.35
45393;BMP280;31129;44.810;10.334;2023-07-29T03:33:25;100542.63;;;24.47
45393;BMP280;31129;44.810;10.334;2023-07-29T03:35:52;100530.91;;;24.49
45393;BMP280;31129;44.810;10.334;2023-07-29T03:38:17;100531.38;;;24.55
45393;BMP280;31129;44.810;10.334;2023-07-29T03:40:43;100531.13;;;24.43
45393;BMP280;31129;44.810;10.334;2023-07-29T03:43:09;100535.75;;;24.48
45393;BMP280;31129;44.810;10.334;2023-07-29T03:45:35;100536.63;;;24.51
45393;BMP280;31129;44.810;10.334;2023-07-29T03:48:01;100525.38;;;24.41
45393;BMP280;31129;44.810;10.334;2023-07-29T03:50:28;100521.09;;;24.40
45393;BMP280;31129;44.810;10.334;2023-07-29T03:52:55;100508.25;;;24.45
45393;BMP280;31129;44.810;10.334;2023-07-29T03:55:20;100508.00;;;24.50
45393;BMP280;31129;44.810;10.334;2023-07-29T03:57:46;100509.22;;;24.39
45393;BMP280;31129;44.810;10.334;2023-07-29T04:00:12;100516.53;;;24.35
45393;BMP280;31129;44.810;10.334;2023-07-29T04:02:42;100520.38;;;24.39
45393;BMP280;31129;44.810;10.334;2023-07-29T04:05:09;100528.56;;;24.37
45393;BMP280;31129;44.810;10.334;2023-07-29T04:07:35;100533.19;;;24.42
45393;BMP280;31129;44.810;10.334;2023-07-29T04:10:02;100546.22;;;24.40
45393;BMP280;31129;44.810;10.334;2023-07-29T04:12:28;100538.19;;;24.44
45393;BMP280;31129;44.810;10.334;2023-07-29T04:14:53;100542.47;;;24.45
45393;BMP280;31129;44.810;10.334;2023-07-29T04:17:19;100544.03;;;24.56
45393;BMP280;31129;44.810;10.334;2023-07-29T04:19:45;100542.25;;;24.68
45393;BMP280;31129;44.810;10.334;2023-07-29T04:22:10;100542.25;;;24.68
45393;BMP280;31129;44.810;10.334;2023-07-29T04:24:37;100542.50;;;24.62
45393;BMP280;31129;44.810;10.334;2023-07-29T04:27:03;100551.50;;;24.70
45393;BMP280;31129;44.810;10.334;2023-07-29T04:29:29;100552.41;;;24.73
45393;BMP280;31129;44.810;10.334;2023-07-29T04:31:55;100553.72;;;24.72
45393;BMP280;31129;44.810;10.334;2023-07-29T04:34:20;100545.19;;;24.70
45393;BMP280;31129;44.810;10.334;2023-07-29T04:36:46;100554.97;;;24.61
45393;BMP280;31129;44.810;10.334;2023-07-29T04:39:12;100555.47;;;24.67
45393;BMP280;31129;44.810;10.334;2023-07-29T04:41:38;100568.41;;;24.72
45393;BMP280;31129;44.810;10.334;2023-07-29T04:44:03;100567.59;;;24.79
45393;BMP280;31129;44.810;10.334;2023-07-29T04:46:31;100574.41;;;24.86
45393;BMP280;31129;44.810;10.334;2023-07-29T04:48:57;100574.03;;;24.90
45393;BMP280;31129;44.810;10.334;2023-07-29T04:51:23;100564.88;;;24.89
45393;BMP280;31129;44.810;10.334;2023-07-29T04:53:49;100566.75;;;25.04
45393;BMP280;31129;44.810;10.334;2023-07-29T04:56:14;100563.56;;;25.07
45393;BMP280;31129;44.810;10.334;2023-07-29T04:58:41;100579.81;;;25.18
45393;BMP280;31129;44.810;10.334;2023-07-29T05:01:07;100589.16;;;25.30
45393;BMP280;31129;44.810;10.334;2023-07-29T05:03:33;100598.28;;;25.31
45393;BMP280;31129;44.810;10.334;2023-07-29T05:05:59;100589.75;;;25.29
45393;BMP280;31129;44.810;10.334;2023-07-29T05:08:28;100576.03;;;25.23
45393;BMP280;31129;44.810;10.334;2023-07-29T05:10:54;100580.94;;;25.32
45393;BMP280;31129;44.810;10.334;2023-07-29T05:13:21;100577.75;;;25.36
45393;BMP280;31129;44.810;10.334;2023-07-29T05:15:48;100584.72;;;25.27
45393;BMP280;31129;44.810;10.334;2023-07-29T05:18:15;100580.63;;;25.28
45393;BMP280;31129;44.810;10.334;2023-07-29T05:20:42;100569.38;;;25.36
45393;BMP280;31129;44.810;10.334;2023-07-29T05:23:08;100577.09;;;25.55
45393;BMP280;31129;44.810;10.334;2023-07-29T05:25:34;100595.00;;;25.69
45393;BMP280;31129;44.810;10.334;2023-07-29T05:28:02;100604.16;;;25.79
45393;BMP280;31129;44.810;10.334;2023-07-29T05:30:29;100602.44;;;25.93
45393;BMP280;31129;44.810;10.334;2023-07-29T05:32:57;100603.44;;;25.88
45393;BMP280;31129;44.810;10.334;2023-07-29T05:35:23;100600.09;;;25.63
45393;BMP280;31129;44.810;10.334;2023-07-29T05:37:49;100599.97;;;25.44
45393;BMP280;31129;44.810;10.334;2023-07-29T05:40:15;100605.50;;;25.34
45393;BMP280;31129;44.810;10.334;2023-07-29T05:42:41;100606.44;;;25.37
45393;BMP280;31129;44.810;10.334;2023-07-29T05:45:07;100608.41;;;25.70
45393;BMP280;31129;44.810;10.334;2023-07-29T05:47:33;100610.53;;;25.89
45393;BMP280;31129;44.810;10.334;2023-07-29T05:49:58;100609.09;;;25.98
45393;BMP280;31129;44.810;10.334;2023-07-29T05:52:25;100605.91;;;26.20
45393;BMP280;31129;44.810;10.334;2023-07-29T05:54:50;100609.34;;;26.38
45393;BMP280;31129;44.810;10.334;2023-07-29T05:57:16;100605.84;;;26.47
45393;BMP280;31129;44.810;10.334;2023-07-29T05:59:42;100603.88;;;26.40
45393;BMP280;31129;44.810;10.334;2023-07-29T06:02:07;100604.63;;;26.41
45393;BMP280;31129;44.810;10.334;2023-07-29T06:04:33;100608.34;;;26.43
45393;BMP280;31129;44.810;10.334;2023-07-29T06:06:58;100608.13;;;26.22
45393;BMP280;31129;44.810;10.334;2023-07-29T06:09:24;100604.13;;;26.06
45393;BMP280;31129;44.810;10.334;2023-07-29T06:11:51;100607.69;;;26.16
45393;BMP280;31129;44.810;10.334;2023-07-29T06:14:16;100603.00;;;26.28
45393;BMP280;31129;44.810;10.334;2023-07-29T06:16:42;100614.22;;;26.38
45393;BMP280;31129;44.810;10.334;2023-07-29T06:19:08;100610.16;;;26.58
45393;BMP280;31129;44.810;10.334;2023-07-29T06:21:34;100613.97;;;26.72
45393;BMP280;31129;44.810;10.334;2023-07-29T06:24:01;100610.56;;;26.83
45393;BMP280;31129;44.810;10.334;2023-07-29T06:26:27;100612.06;;;26.65
45393;BMP280;31129;44.810;10.334;2023-07-29T06:28:52;100611.75;;;26.70
45393;BMP280;31129;44.810;10.334;2023-07-29T06:31:18;100613.81;;;26.70
45393;BMP280;31129;44.810;10.334;2023-07-29T06:33:43;100614.13;;;26.84
45393;BMP280;31129;44.810;10.334;2023-07-29T06:36:09;100615.16;;;26.88
45393;BMP280;31129;44.810;10.334;2023-07-29T06:38:35;100616.06;;;26.91
45393;BMP280;31129;44.810;10.334;2023-07-29T06:41:00;100607.66;;;26.91
45393;BMP280;31129;44.810;10.334;2023-07-29T06:43:26;100612.50;;;26.81
45393;BMP280;31129;44.810;10.334;2023-07-29T06:45:53;100610.28;;;26.79
45393;BMP280;31129;44.810;10.334;2023-07-29T06:48:18;100615.16;;;26.98
45393;BMP280;31129;44.810;10.334;2023-07-29T06:50:45;100605.13;;;26.95
45393;BMP280;31129;44.810;10.334;2023-07-29T06:53:10;100606.28;;;26.82
45393;BMP280;31129;44.810;10.334;2023-07-29T06:55:36;100613.06;;;26.60
45393;BMP280;31129;44.810;10.334;2023-07-29T06:58:02;100614.53;;;26.51
45393;BMP280;31129;44.810;10.334;2023-07-29T07:00:27;100615.44;;;26.63
45393;BMP280;31129;44.810;10.334;2023-07-29T07:02:53;100617.63;;;26.46
45393;BMP280;31129;44.810;10.334;2023-07-29T07:05:19;100621.19;;;26.56
45393;BMP280;31129;44.810;10.334;2023-07-29T07:07:44;100614.53;;;26.51
45393;BMP280;31129;44.810;10.334;2023-07-29T07:10:10;100611.63;;;26.59
45393;BMP280;31129;44.810;10.334;2023-07-29T07:12:35;100615.88;;;26.69
45393;BMP280;31129;44.810;10.334;2023-07-29T07:15:01;100616.63;;;26.89
45393;BMP280;31129;44.810;10.334;2023-07-29T07:17:27;100616.78;;;27.01
45393;BMP280;31129;44.810;10.334;2023-07-29T07:19:52;100623.84;;;27.02
45393;BMP280;31129;44.810;10.334;2023-07-29T07:22:18;100614.72;;;26.92
45393;BMP280;31129;44.810;10.334;2023-07-29T07:24:44;100617.38;;;26.61
45393;BMP280;31129;44.810;10.334;2023-07-29T07:27:09;100615.75;;;26.96
45393;BMP280;31129;44.810;10.334;2023-07-29T07:29:35;100612.06;;;27.03
45393;BMP280;31129;44.810;10.334;2023-07-29T07:32:00;100602.91;;;27.12
45393;BMP280;31129;44.810;10.334;2023-07-29T07:34:26;100606.28;;;27.21
45393;BMP280;31129;44.810;10.334;2023-07-29T07:36:52;100609.50;;;27.17
45393;BMP280;31129;44.810;10.334;2023-07-29T07:39:17;100618.53;;;27.15
45393;BMP280;31129;44.810;10.334;2023-07-29T07:41:43;100612.50;;;26.81
45393;BMP280;31129;44.810;10.334;2023-07-29T07:44:09;100617.91;;;27.17
45393;BMP280;31129;44.810;10.334;2023-07-29T07:46:34;100618.50;;;27.35
45393;BMP280;31129;44.810;10.334;2023-07-29T07:49:00;100613.91;;;27.49
45393;BMP280;31129;44.810;10.334;2023-07-29T07:51:25;100615.19;;;27.57
45393;BMP280;31129;44.810;10.334;2023-07-29T07:53:53;100615.53;;;27.42
45393;BMP280;31129;44.810;10.334;2023-07-29T07:56:19;100620.25;;;27.49
45393;BMP280;31129;44.810;10.334;2023-07-29T07:58:45;100622.66;;;27.14
45393;BMP280;31129;44.810;10.334;2023-07-29T08:01:10;100620.31;;;27.21
45393;BMP280;31129;44.810;10.334;2023-07-29T08:03:36;100627.94;;;27.39
45393;BMP280;31129;44.810;10.334;2023-07-29T08:06:02;100624.25;;;27.27
45393;BMP280;31129;44.810;10.334;2023-07-29T08:08:28;100621.31;;;27.35
45393;BMP280;31129;44.810;10.334;2023-07-29T08:10:54;100622.13;;;27.66
45393;BMP280;31129;44.810;10.334;2023-07-29T08:13:21;100619.09;;;27.74
45393;BMP280;31129;44.810;10.334;2023-07-29T08:15:48;100620.75;;;27.67
45393;BMP280;31129;44.810;10.334;2023-07-29T08:18:14;100604.53;;;27.65
45393;BMP280;31129;44.810;10.334;2023-07-29T08:20:39;100606.63;;;27.55
45393;BMP280;31129;44.810;10.334;2023-07-29T08:23:05;100605.66;;;27.82
45393;BMP280;31129;44.810;10.334;2023-07-29T08:25:30;100612.50;;;28.00
45393;BMP280;31129;44.810;10.334;2023-07-29T08:27:56;100609.91;;;27.83
45393;BMP280;31129;44.810;10.334;2023-07-29T08:30:22;100597.72;;;27.69
45393;BMP280;31129;44.810;10.334;2023-07-29T08:32:47;100600.28;;;27.55
45393;BMP280;31129;44.810;10.334;2023-07-29T08:35:13;100598.31;;;27.67
45393;BMP280;31129;44.810;10.334;2023-07-29T08:37:38;100599.72;;;27.47
45393;BMP280;31129;44.810;10.334;2023-07-29T08:40:05;100604.97;;;27.62
45393;BMP280;31129;44.810;10.334;2023-07-29T08:42:32;100592.06;;;27.78
45393;BMP280;31129;44.810;10.334;2023-07-29T08:45:07;100599.34;;;28.02
45393;BMP280;31129;44.810;10.334;2023-07-29T08:47:37;100597.84;;;28.01
45393;BMP280;31129;44.810;10.334;2023-07-29T08:50:03;100594.97;;;27.90
45393;BMP280;31129;44.810;10.334;2023-07-29T08:52:29;100598.75;;;28.04
45393;BMP280;31129;44.810;10.334;2023-07-29T08:54:55;100594.06;;;28.18
45393;BMP280;31129;44.810;10.334;2023-07-29T08:57:21;100594.66;;;28.17
45393;BMP280;31129;44.810;10.334;2023-07-29T08:59:47;100600.44;;;28.19
45393;BMP280;31129;44.810;10.334;2023-07-29T09:02:13;100597.97;;;28.34
45393;BMP280;31129;44.810;10.334;2023-07-29T09:04:38;100602.22;;;28.35
45393;BMP280;31129;44.810;10.334;2023-07-29T09:07:05;100589.97;;;28.40
45393;BMP280;31129;44.810;10.334;2023-07-29T09:09:31;100609.91;;;28.35
45393;BMP280;31129;44.810;10.334;2023-07-29T09:11:57;100594.66;;;28.59
45393;BMP280;31129;44.810;10.334;2023-07-29T09:14:23;100596.03;;;28.58
45393;BMP280;31129;44.810;10.334;2023-07-29T09:16:49;100591.03;;;28.68
45393;BMP280;31129;44.810;10.334;2023-07-29T09:19:15;100603.66;;;28.46
45393;BMP280;31129;44.810;10.334;2023-07-29T09:21:41;100600.50;;;28.09
45393;BMP280;31129;44.810;10.334;2023-07-29T09:24:07;100592.44;;;28.25
45393;BMP280;31129;44.810;10.334;2023-07-29T09:26:33;100592.53;;;28.48
45393;BMP280;31129;44.810;10.334;2023-07-29T09:28:59;100590.16;;;28.66
45393;BMP280;31129;44.810;10.334;2023-07-29T09:31:26;100582.22;;;28.95
45393;BMP280;31129;44.810;10.334;2023-07-29T09:34:02;100590.63;;;28.95
45393;BMP280;31129;44.810;10.334;2023-07-29T09:36:31;100592.28;;;29.21
45393;BMP280;31129;44.810;10.334;2023-07-29T09:38:57;100581.56;;;28.85
45393;BMP280;31129;44.810;10.334;2023-07-29T09:41:28;100588.56;;;28.95
45393;BMP280;31129;44.810;10.334;2023-07-29T09:44:01;100589.66;;;29.35
45393;BMP280;31129;44.810;10.334;2023-07-29T09:46:37;100581.56;;;29.41
45393;BMP280;31129;44.810;10.334;2023-07-29T09:49:07;100597.72;;;29.40
45393;BMP280;31129;44.810;10.334;2023-07-29T09:51:39;100586.69;;;29.33
45393;BMP280;31129;44.810;10.334;2023-07-29T09:54:05;100584.13;;;29.37
45393;BMP280;31129;44.810;10.334;2023-07-29T09:56:30;100583.28;;;29.46
45393;BMP280;31129;44.810;10.334;2023-07-29T09:58:56;100590.75;;;29.53
45393;BMP280;31129;44.810;10.334;2023-07-29T10:01:23;100577.78;;;29.48
45393;BMP280;31129;44.810;10.334;2023-07-29T10:03:49;100581.81;;;29.56
45393;BMP280;31129;44.810;10.334;2023-07-29T10:06:15;100570.78;;;29.95
45393;BMP280;31129;44.810;10.334;2023-07-29T10:08:42;100571.53;;;29.84
45393;BMP280;31129;44.810;10.334;2023-07-29T10:11:09;100570.47;;;30.15
45393;BMP280;31129;44.810;10.334;2023-07-29T10:13:35;100566.41;;;29.34
45393;BMP280;31129;44.810;10.334;2023-07-29T10:16:02;100570.53;;;29.22
45393;BMP280;31129;44.810;10.334;2023-07-29T10:18:29;100554.03;;;29.16
45393;BMP280;31129;44.810;10.334;2023-07-29T10:20:57;100559.06;;;29.41
45393;BMP280;31129;44.810;10.334;2023-07-29T10:23:24;100562.34;;;29.72
45393;BMP280;31129;44.810;10.334;2023-07-29T10:25:55;100563.88;;;30.10
45393;BMP280;31129;44.810;10.334;2023-07-29T10:28:25;100559.13;;;29.89
45393;BMP280;31129;44.810;10.334;2023-07-29T10:30:51;100555.69;;;29.91
45393;BMP280;31129;44.810;10.334;2023-07-29T10:33:17;100556.03;;;30.08
45393;BMP280;31129;44.810;10.334;2023-07-29T10:35:43;100553.41;;;29.87
45393;BMP280;31129;44.810;10.334;2023-07-29T10:38:09;100543.97;;;29.83
45393;BMP280;31129;44.810;10.334;2023-07-29T10:40:46;100544.41;;;30.02
45393;BMP280;31129;44.810;10.334;2023-07-29T10:43:12;100547.34;;;30.04
45393;BMP280;31129;44.810;10.334;2023-07-29T10:45:43;100545.88;;;30.40
45393;BMP280;31129;44.810;10.334;2023-07-29T10:48:13;100547.91;;;30.77
45393;BMP280;31129;44.810;10.334;2023-07-29T10:50:39;100542.50;;;30.94
45393;BMP280;31129;44.810;10.334;2023-07-29T10:53:04;100537.44;;;30.79
45393;BMP280;31129;44.810;10.334;2023-07-29T10:55:35;100531.44;;;30.98
45393;BMP280;31129;44.810;10.334;2023-07-29T10:58:14;100526.19;;;30.93
45393;BMP280;31129;44.810;10.334;2023-07-29T11:00:44;100527.88;;;30.84
45393;BMP280;31129;44.810;10.334;2023-07-29T11:03:12;100534.69;;;31.06
45393;BMP280;31129;44.810;10.334;2023-07-29T11:10:57;100518.00;;;31.51
45393;BMP280;31129;44.810;10.334;2023-07-29T11:13:23;100524.88;;;31.62
45393;BMP280;31129;44.810;10.334;2023-07-29T11:15:52;100523.91;;;31.71
45393;BMP280;31129;44.810;10.334;2023-07-29T11:18:20;100518.81;;;31.54
45393;BMP280;31129;44.810;10.334;2023-07-29T11:20:46;100517.16;;;31.22
45393;BMP280;31129;44.810;10.334;2023-07-29T11:23:11;100515.69;;;31.07
45393;BMP280;31129;44.810;10.334;2023-07-29T11:25:37;100516.91;;;30.90
45393;BMP280;31129;44.810;10.334;2023-07-29T11:28:03;100512.28;;;30.70
45393;BMP280;31129;44.810;10.334;2023-07-29T11:30:29;100506.38;;;30.52
45393;BMP280;31129;44.810;10.334;2023-07-29T11:32:57;100498.78;;;30.29
45393;BMP280;31129;44.810;10.334;2023-07-29T11:35:23;100498.78;;;30.54
45393;BMP280;31129;44.810;10.334;2023-07-29T11:37:50;100501.63;;;30.68
45393;BMP280;31129;44.810;10.334;2023-07-29T11:40:17;100508.13;;;30.84
45393;BMP280;31129;44.810;10.334;2023-07-29T11:42:43;100505.31;;;30.84
45393;BMP280;31129;44.810;10.334;2023-07-29T11:45:09;100495.72;;;30.89
45393;BMP280;31129;44.810;10.334;2023-07-29T11:47:35;100494.91;;;31.14
45393;BMP280;31129;44.810;10.334;2023-07-29T11:50:03;100492.69;;;31.26
45393;BMP280;31129;44.810;10.334;2023-07-29T11:52:34;100488.84;;;31.33
45393;BMP280;31129;44.810;10.334;2023-07-29T11:55:01;100495.91;;;31.61
45393;BMP280;31129;44.810;10.334;2023-07-29T11:57:28;100489.66;;;31.63
45393;BMP280;31129;44.810;10.334;2023-07-29T11:59:54;100489.69;;;31.36
45393;BMP280;31129;44.810;10.334;2023-07-29T12:02:20;100474.41;;;31.27
45393;BMP280;31129;44.810;10.334;2023-07-29T12:04:47;100476.31;;;31.36
45393;BMP280;31129;44.810;10.334;2023-07-29T12:07:14;100483.66;;;31.71
45393;BMP280;31129;44.810;10.334;2023-07-29T12:09:41;100474.72;;;31.47
45393;BMP280;31129;44.810;10.334;2023-07-29T12:12:07;100470.00;;;31.51
45393;BMP280;31129;44.810;10.334;2023-07-29T12:14:33;100471.63;;;31.70
45393;BMP280;31129;44.810;10.334;2023-07-29T12:17:04;100472.09;;;31.51
45393;BMP280;31129;44.810;10.334;2023-07-29T12:19:34;100471.97;;;31.62
45393;BMP280;31129;44.810;10.334;2023-07-29T12:22:04;100460.56;;;31.74
45393;BMP280;31129;44.810;10.334;2023-07-29T12:24:30;100455.25;;;31.53
45393;BMP280;31129;44.810;10.334;2023-07-29T12:26:56;100461.28;;;31.75
45393;BMP280;31129;44.810;10.334;2023-07-29T12:29:22;100462.28;;;32.10
45393;BMP280;31129;44.810;10.334;2023-07-29T12:31:48;100452.31;;;31.64
45393;BMP280;31129;44.810;10.334;2023-07-29T12:34:21;100456.31;;;31.46
45393;BMP280;31129;44.810;10.334;2023-07-29T12:36:48;100444.09;;;31.28
45393;BMP280;31129;44.810;10.334;2023-07-29T12:39:24;100445.69;;;31.31
45393;BMP280;31129;44.810;10.334;2023-07-29T12:41:52;100448.50;;;31.44
45393;BMP280;31129;44.810;10.334;2023-07-29T12:44:18;100435.19;;;31.60
45393;BMP280;31129;44.810;10.334;2023-07-29T12:46:44;100426.94;;;31.51
45393;BMP280;31129;44.810;10.334;2023-07-29T12:49:10;100435.84;;;31.32
45393;BMP280;31129;44.810;10.334;2023-07-29T12:51:36;100436.94;;;31.54
45393;BMP280;31129;44.810;10.334;2023-07-29T12:54:05;100430.03;;;32.15
45393;BMP280;31129;44.810;10.334;2023-07-29T12:56:33;100430.50;;;31.81
45393;BMP280;31129;44.810;10.334;2023-07-29T12:58:59;100425.72;;;31.70
45393;BMP280;31129;44.810;10.334;2023-07-29T13:01:25;100435.13;;;32.19
45393;BMP280;31129;44.810;10.334;2023-07-29T13:03:51;100422.19;;;31.98
45393;BMP280;31129;44.810;10.334;2023-07-29T13:06:17;100427.81;;;31.98
45393;BMP280;31129;44.810;10.334;2023-07-29T13:08:43;100418.63;;;31.98
45393;BMP280;31129;44.810;10.334;2023-07-29T13:11:09;100419.00;;;32.06
45393;BMP280;31129;44.810;10.334;2023-07-29T13:13:35;100420.00;;;32.12
45393;BMP280;31129;44.810;10.334;2023-07-29T13:16:00;100407.94;;;31.67
45393;BMP280;31129;44.810;10.334;2023-07-29T13:18:27;100403.19;;;31.85
45393;BMP280;31129;44.810;10.334;2023-07-29T13:20:53;100407.47;;;32.02
45393;BMP280;31129;44.810;10.334;2023-07-29T13:23:19;100394.50;;;32.26
45393;BMP280;31129;44.810;10.334;2023-07-29T13:25:45;100390.97;;;32.41
45393;BMP280;31129;44.810;10.334;2023-07-29T13:28:11;100387.91;;;33.02
45393;BMP280;31129;44.810;10.334;2023-07-29T13:30:41;100390.06;;;33.19
45393;BMP280;31129;44.810;10.334;2023-07-29T13:33:07;100375.88;;;33.01
45393;BMP280;31129;44.810;10.334;2023-07-29T13:35:33;100385.34;;;33.25
45393;BMP280;31129;44.810;10.334;2023-07-29T13:37:59;100381.34;;;34.03
45393;BMP280;31129;44.810;10.334;2023-07-29T13:40:24;100383.59;;;34.46
45393;BMP280;31129;44.810;10.334;2023-07-29T13:42:50;100383.88;;;34.74
45393;BMP280;31129;44.810;10.334;2023-07-29T13:45:15;100381.25;;;35.02
45393;BMP280;31129;44.810;10.334;2023-07-29T13:47:41;100379.50;;;34.71
45393;BMP280;31129;44.810;10.334;2023-07-29T13:50:07;100384.63;;;34.35
45393;BMP280;31129;44.810;10.334;2023-07-29T13:52:36;100382.44;;;34.53